BRA1723 SBCT-SBFI
Flight info
| Callsign | BRA1723 |
|---|---|
| Flight time | 0h 57m |
| Altitude | 36000 |
| Route | EVSUP UZ161 DIDOM |
| Aircraft | A21N/M-SDE2E3FGHIRWXY/LB1 |
Departure
| Time | 2026-04-26 20:43 |
|---|---|
| Airport | Curitiba-Afonso Pena International Airport (SBCT) |
Arrival
| Time | 2026-04-26 21:40 |
|---|---|
| Airport | Cataratas International Airport (SBFI) |
| Time | Latitude | Longitude | Altitude | Speed | Heading |
|---|---|---|---|---|---|
| 2026-04-26 20:08 | -25.53489 | -49.17304 | 2999 ft | 0 kts | 209° |
| 2026-04-26 20:31 | -25.53468 | -49.17292 | 2999 ft | 4 kts | 203° |
| 2026-04-26 20:32 | -25.53442 | -49.17282 | 2998 ft | 5 kts | 190° |
| 2026-04-26 20:32 | -25.53417 | -49.17282 | 2997 ft | 4 kts | 162° |
| 2026-04-26 20:32 | -25.53403 | -49.17289 | 2997 ft | 0 kts | 135° |
| 2026-04-26 20:38 | -25.53404 | -49.17289 | 2997 ft | 1 kts | 135° |
| 2026-04-26 20:39 | -25.53442 | -49.17247 | 2996 ft | 12 kts | 135° |
| 2026-04-26 20:39 | -25.53508 | -49.17179 | 2996 ft | 14 kts | 141° |
| 2026-04-26 20:39 | -25.53587 | -49.17096 | 2996 ft | 16 kts | 128° |
| 2026-04-26 20:39 | -25.53616 | -49.17001 | 2995 ft | 0 kts | 89° |
| 2026-04-26 20:40 | -25.53616 | -49.17000 | 2995 ft | 0 kts | 87° |
| 2026-04-26 20:40 | -25.53616 | -49.16999 | 2995 ft | 0 kts | 87° |
| 2026-04-26 20:40 | -25.53616 | -49.16998 | 2995 ft | 1 kts | 87° |
| 2026-04-26 20:41 | -25.53612 | -49.16886 | 2996 ft | 4 kts | 91° |
| 2026-04-26 20:41 | -25.53612 | -49.16852 | 2996 ft | 7 kts | 90° |
| 2026-04-26 20:41 | -25.53593 | -49.16774 | 2997 ft | 10 kts | 18° |
| 2026-04-26 20:41 | -25.53531 | -49.16811 | 2996 ft | 12 kts | 314° |
| 2026-04-26 20:42 | -25.53519 | -49.16825 | 2996 ft | 0 kts | 314° |
| 2026-04-26 20:42 | -25.53500 | -49.16847 | 2996 ft | 20 kts | 314° |
| 2026-04-26 20:43 | -25.53218 | -49.17163 | 2999 ft | 104 kts | 314° |
| 2026-04-26 20:43 | -25.52497 | -49.17957 | 3161 ft | 170 kts | 314° |
| 2026-04-26 20:43 | -25.51606 | -49.18948 | 3985 ft | 203 kts | 314° |
| 2026-04-26 20:43 | -25.50556 | -49.20168 | 4613 ft | 226 kts | 310° |
| 2026-04-26 20:44 | -25.49427 | -49.21442 | 5198 ft | 240 kts | 312° |
| 2026-04-26 20:44 | -25.48404 | -49.22561 | 5882 ft | 247 kts | 311° |
| 2026-04-26 20:44 | -25.47149 | -49.23930 | 6765 ft | 251 kts | 311° |
| 2026-04-26 20:44 | -25.46086 | -49.25455 | 7411 ft | 249 kts | 295° |
| 2026-04-26 20:45 | -25.45568 | -49.27251 | 7848 ft | 250 kts | 277° |
| 2026-04-26 20:45 | -25.45654 | -49.29198 | 8019 ft | 254 kts | 259° |
| 2026-04-26 20:45 | -25.46348 | -49.30986 | 8044 ft | 260 kts | 241° |
| 2026-04-26 20:45 | -25.47570 | -49.32406 | 8030 ft | 269 kts | 222° |
| 2026-04-26 20:46 | -25.49269 | -49.33355 | 8020 ft | 278 kts | 208° |
| 2026-04-26 20:46 | -25.51093 | -49.34073 | 8009 ft | 278 kts | 206° |
| 2026-04-26 20:46 | -25.52921 | -49.34786 | 7982 ft | 278 kts | 207° |
| 2026-04-26 20:46 | -25.54743 | -49.35518 | 7978 ft | 278 kts | 207° |
| 2026-04-26 20:47 | -25.56553 | -49.36261 | 7973 ft | 277 kts | 207° |
| 2026-04-26 20:47 | -25.57742 | -49.36774 | 7971 ft | 276 kts | 211° |
| 2026-04-26 20:47 | -25.59683 | -49.38455 | 7957 ft | 259 kts | 240° |
| 2026-04-26 20:47 | -25.60357 | -49.40253 | 8115 ft | 251 kts | 263° |
| 2026-04-26 20:48 | -25.60321 | -49.42191 | 8796 ft | 255 kts | 281° |
| 2026-04-26 20:48 | -25.59834 | -49.44100 | 9641 ft | 260 kts | 286° |
| 2026-04-26 20:48 | -25.59281 | -49.46041 | 10278 ft | 271 kts | 286° |
| 2026-04-26 20:48 | -25.58695 | -49.48139 | 10612 ft | 292 kts | 286° |
| 2026-04-26 20:49 | -25.58095 | -49.50337 | 10909 ft | 311 kts | 286° |
| 2026-04-26 20:49 | -25.57464 | -49.52674 | 11473 ft | 321 kts | 286° |
| 2026-04-26 20:49 | -25.56819 | -49.55060 | 12207 ft | 325 kts | 286° |
| 2026-04-26 20:49 | -25.56204 | -49.57361 | 12943 ft | 328 kts | 286° |
| 2026-04-26 20:50 | -25.55554 | -49.59833 | 13739 ft | 331 kts | 286° |
| 2026-04-26 20:50 | -25.54900 | -49.62294 | 14407 ft | 335 kts | 286° |
| 2026-04-26 20:50 | -25.54233 | -49.64787 | 15081 ft | 339 kts | 286° |
| 2026-04-26 20:50 | -25.53568 | -49.67253 | 15755 ft | 342 kts | 286° |
| 2026-04-26 20:51 | -25.52892 | -49.69786 | 16415 ft | 345 kts | 286° |
| 2026-04-26 20:51 | -25.52207 | -49.72351 | 17061 ft | 349 kts | 286° |
| 2026-04-26 20:51 | -25.51512 | -49.74940 | 17719 ft | 352 kts | 286° |
| 2026-04-26 20:51 | -25.50809 | -49.77553 | 18360 ft | 355 kts | 286° |
| 2026-04-26 20:52 | -25.50103 | -49.80186 | 18941 ft | 358 kts | 286° |
| 2026-04-26 20:52 | -25.49393 | -49.82849 | 19511 ft | 360 kts | 286° |
| 2026-04-26 20:52 | -25.48678 | -49.85511 | 20083 ft | 362 kts | 286° |
| 2026-04-26 20:52 | -25.47957 | -49.88195 | 20647 ft | 365 kts | 286° |
| 2026-04-26 20:53 | -25.47237 | -49.90893 | 21193 ft | 367 kts | 286° |
| 2026-04-26 20:53 | -25.46508 | -49.93608 | 21749 ft | 369 kts | 286° |
| 2026-04-26 20:53 | -25.45783 | -49.96307 | 22297 ft | 371 kts | 286° |
| 2026-04-26 20:53 | -25.45044 | -49.99057 | 22824 ft | 374 kts | 286° |
| 2026-04-26 20:54 | -25.44289 | -50.01862 | 23356 ft | 376 kts | 286° |
| 2026-04-26 20:54 | -25.43548 | -50.04624 | 23805 ft | 379 kts | 286° |
| 2026-04-26 20:54 | -25.42787 | -50.07429 | 24234 ft | 381 kts | 286° |
| 2026-04-26 20:54 | -25.42023 | -50.10248 | 24654 ft | 383 kts | 286° |
| 2026-04-26 20:55 | -25.41257 | -50.13081 | 25067 ft | 386 kts | 286° |
| 2026-04-26 20:55 | -25.40489 | -50.15938 | 25479 ft | 388 kts | 286° |
| 2026-04-26 20:55 | -25.39717 | -50.18808 | 25904 ft | 390 kts | 286° |
| 2026-04-26 20:55 | -25.38947 | -50.21629 | 26325 ft | 392 kts | 286° |
| 2026-04-26 20:56 | -25.38171 | -50.24490 | 26728 ft | 394 kts | 286° |
| 2026-04-26 20:56 | -25.37387 | -50.27394 | 27143 ft | 395 kts | 286° |
| 2026-04-26 20:56 | -25.36588 | -50.30319 | 27542 ft | 398 kts | 286° |
| 2026-04-26 20:56 | -25.35789 | -50.33254 | 27936 ft | 399 kts | 286° |
| 2026-04-26 20:57 | -25.34987 | -50.36208 | 28307 ft | 402 kts | 286° |
| 2026-04-26 20:57 | -25.34180 | -50.39171 | 28684 ft | 404 kts | 286° |
| 2026-04-26 20:57 | -25.33363 | -50.42166 | 29050 ft | 406 kts | 286° |
| 2026-04-26 20:57 | -25.32543 | -50.45168 | 29413 ft | 408 kts | 286° |
| 2026-04-26 20:58 | -25.31717 | -50.48184 | 29745 ft | 411 kts | 286° |
| 2026-04-26 20:58 | -25.31171 | -50.50184 | 30018 ft | 410 kts | 286° |
| 2026-04-26 20:58 | -25.30345 | -50.53205 | 30424 ft | 409 kts | 286° |
| 2026-04-26 20:58 | -25.29558 | -50.56230 | 30794 ft | 408 kts | 283° |
| 2026-04-26 20:59 | -25.29148 | -50.59323 | 31181 ft | 407 kts | 274° |
| 2026-04-26 20:59 | -25.29121 | -50.62453 | 31530 ft | 407 kts | 271° |
| 2026-04-26 20:59 | -25.29171 | -50.65616 | 31866 ft | 407 kts | 270° |
| 2026-04-26 20:59 | -25.29226 | -50.68746 | 32222 ft | 406 kts | 270° |
| 2026-04-26 21:00 | -25.29271 | -50.71701 | 32542 ft | 405 kts | 270° |
| 2026-04-26 21:00 | -25.29319 | -50.74985 | 32904 ft | 405 kts | 270° |
| 2026-04-26 21:00 | -25.29363 | -50.78054 | 33239 ft | 404 kts | 270° |
| 2026-04-26 21:00 | -25.29399 | -50.81100 | 33562 ft | 403 kts | 271° |
| 2026-04-26 21:01 | -25.29426 | -50.84237 | 33888 ft | 402 kts | 271° |
| 2026-04-26 21:01 | -25.29451 | -50.87329 | 34180 ft | 402 kts | 271° |
| 2026-04-26 21:01 | -25.29473 | -50.90427 | 34445 ft | 401 kts | 271° |
| 2026-04-26 21:01 | -25.29501 | -50.93504 | 34697 ft | 400 kts | 271° |
| 2026-04-26 21:02 | -25.29535 | -50.96553 | 34954 ft | 400 kts | 271° |
| 2026-04-26 21:02 | -25.29565 | -50.99667 | 35212 ft | 400 kts | 271° |
| 2026-04-26 21:02 | -25.29592 | -51.02700 | 35474 ft | 399 kts | 271° |
| 2026-04-26 21:02 | -25.29620 | -51.05808 | 35699 ft | 399 kts | 271° |
| 2026-04-26 21:03 | -25.29644 | -51.08875 | 35928 ft | 398 kts | 271° |
| 2026-04-26 21:03 | -25.29705 | -51.15036 | 35992 ft | 402 kts | 271° |
| 2026-04-26 21:04 | -25.29756 | -51.21211 | 35965 ft | 402 kts | 271° |
| 2026-04-26 21:04 | -25.29807 | -51.27409 | 35970 ft | 403 kts | 271° |
| 2026-04-26 21:05 | -25.29845 | -51.33618 | 35976 ft | 404 kts | 271° |
| 2026-04-26 21:05 | -25.29881 | -51.39787 | 35970 ft | 404 kts | 271° |
| 2026-04-26 21:06 | -25.29919 | -51.45918 | 35980 ft | 404 kts | 271° |
| 2026-04-26 21:06 | -25.29966 | -51.52135 | 35987 ft | 404 kts | 271° |
| 2026-04-26 21:07 | -25.29992 | -51.58404 | 35974 ft | 405 kts | 271° |
| 2026-04-26 21:07 | -25.30026 | -51.64627 | 35964 ft | 404 kts | 271° |
| 2026-04-26 21:08 | -25.30059 | -51.70849 | 35972 ft | 404 kts | 271° |
| 2026-04-26 21:08 | -25.30090 | -51.77069 | 35975 ft | 405 kts | 271° |
| 2026-04-26 21:09 | -25.30112 | -51.83298 | 35976 ft | 405 kts | 271° |
| 2026-04-26 21:09 | -25.30136 | -51.89390 | 35974 ft | 405 kts | 271° |
| 2026-04-26 21:10 | -25.30143 | -51.95626 | 35972 ft | 405 kts | 271° |
| 2026-04-26 21:10 | -25.30160 | -52.01871 | 35955 ft | 406 kts | 271° |
| 2026-04-26 21:11 | -25.30178 | -52.07953 | 35967 ft | 406 kts | 271° |
| 2026-04-26 21:11 | -25.30171 | -52.14258 | 35965 ft | 406 kts | 271° |
| 2026-04-26 21:12 | -25.30184 | -52.20499 | 35960 ft | 406 kts | 271° |
| 2026-04-26 21:12 | -25.30202 | -52.26752 | 35956 ft | 406 kts | 271° |
| 2026-04-26 21:13 | -25.30201 | -52.32996 | 35958 ft | 406 kts | 271° |
| 2026-04-26 21:13 | -25.30198 | -52.39248 | 35954 ft | 405 kts | 272° |
| 2026-04-26 21:14 | -25.30173 | -52.45514 | 35962 ft | 406 kts | 272° |
| 2026-04-26 21:14 | -25.30150 | -52.51751 | 35953 ft | 406 kts | 271° |
| 2026-04-26 21:15 | -25.30147 | -52.57988 | 35965 ft | 405 kts | 271° |
| 2026-04-26 21:15 | -25.30128 | -52.64235 | 35958 ft | 405 kts | 272° |
| 2026-04-26 21:16 | -25.30101 | -52.70361 | 35959 ft | 405 kts | 272° |
| 2026-04-26 21:16 | -25.30079 | -52.76580 | 35963 ft | 405 kts | 272° |
| 2026-04-26 21:17 | -25.30061 | -52.82788 | 35947 ft | 406 kts | 271° |
| 2026-04-26 21:17 | -25.30039 | -52.89027 | 35952 ft | 406 kts | 272° |
| 2026-04-26 21:18 | -25.30002 | -52.95270 | 35946 ft | 406 kts | 272° |
| 2026-04-26 21:18 | -25.29967 | -53.01510 | 35155 ft | 409 kts | 272° |
| 2026-04-26 21:18 | -25.29948 | -53.04694 | 34163 ft | 415 kts | 271° |
| 2026-04-26 21:19 | -25.29941 | -53.07886 | 33284 ft | 416 kts | 271° |
| 2026-04-26 21:19 | -25.29928 | -53.11089 | 32541 ft | 413 kts | 272° |
| 2026-04-26 21:19 | -25.29904 | -53.14207 | 31858 ft | 410 kts | 272° |
| 2026-04-26 21:19 | -25.29880 | -53.17350 | 31190 ft | 407 kts | 271° |
| 2026-04-26 21:20 | -25.29990 | -53.20469 | 30555 ft | 404 kts | 268° |
| 2026-04-26 21:20 | -25.30194 | -53.23552 | 29886 ft | 400 kts | 267° |
| 2026-04-26 21:20 | -25.30406 | -53.26609 | 29158 ft | 397 kts | 267° |
| 2026-04-26 21:20 | -25.30615 | -53.29632 | 28444 ft | 393 kts | 268° |
| 2026-04-26 21:21 | -25.30816 | -53.32637 | 27799 ft | 389 kts | 268° |
| 2026-04-26 21:21 | -25.30944 | -53.34606 | 27370 ft | 386 kts | 268° |
| 2026-04-26 21:21 | -25.31141 | -53.37587 | 26715 ft | 382 kts | 268° |
| 2026-04-26 21:21 | -25.31333 | -53.40511 | 26082 ft | 379 kts | 268° |
| 2026-04-26 21:22 | -25.31518 | -53.43367 | 25467 ft | 375 kts | 268° |
| 2026-04-26 21:22 | -25.31706 | -53.46268 | 24870 ft | 372 kts | 268° |
| 2026-04-26 21:22 | -25.31891 | -53.49080 | 24267 ft | 370 kts | 268° |
| 2026-04-26 21:23 | -25.32265 | -53.54722 | 22989 ft | 365 kts | 268° |
| 2026-04-26 21:23 | -25.32448 | -53.57509 | 22309 ft | 362 kts | 268° |
| 2026-04-26 21:23 | -25.32625 | -53.60277 | 21678 ft | 358 kts | 268° |
| 2026-04-26 21:23 | -25.32802 | -53.63012 | 21064 ft | 355 kts | 268° |
| 2026-04-26 21:24 | -25.32977 | -53.65723 | 20464 ft | 352 kts | 268° |
| 2026-04-26 21:24 | -25.33149 | -53.68400 | 19912 ft | 348 kts | 268° |
| 2026-04-26 21:24 | -25.33322 | -53.71054 | 19390 ft | 344 kts | 268° |
| 2026-04-26 21:24 | -25.33496 | -53.73676 | 18895 ft | 340 kts | 268° |
| 2026-04-26 21:25 | -25.33665 | -53.76264 | 18410 ft | 337 kts | 268° |
| 2026-04-26 21:25 | -25.33833 | -53.78859 | 17888 ft | 338 kts | 268° |
| 2026-04-26 21:25 | -25.33992 | -53.81446 | 17371 ft | 338 kts | 268° |
| 2026-04-26 21:25 | -25.34141 | -53.83934 | 16860 ft | 338 kts | 268° |
| 2026-04-26 21:26 | -25.34298 | -53.86541 | 16351 ft | 339 kts | 267° |
| 2026-04-26 21:26 | -25.34460 | -53.89136 | 15878 ft | 338 kts | 267° |
| 2026-04-26 21:26 | -25.34624 | -53.91731 | 15414 ft | 337 kts | 267° |
| 2026-04-26 21:26 | -25.34784 | -53.94288 | 14948 ft | 330 kts | 267° |
| 2026-04-26 21:27 | -25.34939 | -53.96806 | 14479 ft | 325 kts | 267° |
| 2026-04-26 21:27 | -25.35089 | -53.99279 | 14017 ft | 320 kts | 266° |
| 2026-04-26 21:27 | -25.35237 | -54.01708 | 13538 ft | 314 kts | 266° |
| 2026-04-26 21:27 | -25.35382 | -54.04105 | 13056 ft | 308 kts | 266° |
| 2026-04-26 21:28 | -25.35526 | -54.06450 | 12609 ft | 303 kts | 266° |
| 2026-04-26 21:28 | -25.35670 | -54.08785 | 12174 ft | 304 kts | 266° |
| 2026-04-26 21:28 | -25.35813 | -54.11113 | 11728 ft | 305 kts | 266° |
| 2026-04-26 21:28 | -25.35956 | -54.13472 | 11280 ft | 306 kts | 266° |
| 2026-04-26 21:29 | -25.36094 | -54.15746 | 10994 ft | 300 kts | 266° |
| 2026-04-26 21:29 | -25.36232 | -54.18010 | 10920 ft | 286 kts | 266° |
| 2026-04-26 21:29 | -25.36363 | -54.20140 | 10775 ft | 272 kts | 266° |
| 2026-04-26 21:29 | -25.36487 | -54.22219 | 10331 ft | 271 kts | 266° |
| 2026-04-26 21:30 | -25.36611 | -54.24302 | 9860 ft | 271 kts | 266° |
| 2026-04-26 21:30 | -25.36735 | -54.26390 | 9370 ft | 270 kts | 265° |
| 2026-04-26 21:30 | -25.36860 | -54.28458 | 8937 ft | 268 kts | 266° |
| 2026-04-26 21:30 | -25.36977 | -54.30444 | 8543 ft | 267 kts | 266° |
| 2026-04-26 21:31 | -25.37101 | -54.32500 | 8161 ft | 268 kts | 266° |
| 2026-04-26 21:31 | -25.37223 | -54.34538 | 7804 ft | 269 kts | 266° |
| 2026-04-26 21:31 | -25.37348 | -54.36628 | 7452 ft | 269 kts | 266° |
| 2026-04-26 21:31 | -25.37471 | -54.38697 | 7085 ft | 270 kts | 266° |
| 2026-04-26 21:32 | -25.37595 | -54.40773 | 6719 ft | 270 kts | 266° |
| 2026-04-26 21:32 | -25.37718 | -54.42831 | 6344 ft | 267 kts | 266° |
| 2026-04-26 21:32 | -25.37838 | -54.44854 | 5944 ft | 267 kts | 266° |
| 2026-04-26 21:32 | -25.37960 | -54.46917 | 5555 ft | 268 kts | 266° |
| 2026-04-26 21:33 | -25.38080 | -54.48964 | 5196 ft | 264 kts | 266° |
| 2026-04-26 21:33 | -25.38197 | -54.50975 | 4822 ft | 262 kts | 266° |
| 2026-04-26 21:33 | -25.38315 | -54.52987 | 4477 ft | 261 kts | 265° |
| 2026-04-26 21:33 | -25.38430 | -54.54986 | 4123 ft | 260 kts | 265° |
| 2026-04-26 21:34 | -25.38541 | -54.56960 | 3911 ft | 251 kts | 265° |
| 2026-04-26 21:34 | -25.38897 | -54.58759 | 3905 ft | 230 kts | 243° |
| 2026-04-26 21:34 | -25.39842 | -54.60066 | 3920 ft | 207 kts | 217° |
| 2026-04-26 21:34 | -25.41107 | -54.60728 | 4009 ft | 208 kts | 200° |
| 2026-04-26 21:35 | -25.42489 | -54.61257 | 4027 ft | 210 kts | 201° |
| 2026-04-26 21:35 | -25.43862 | -54.61804 | 4015 ft | 209 kts | 201° |
| 2026-04-26 21:35 | -25.45220 | -54.62357 | 3974 ft | 204 kts | 201° |
| 2026-04-26 21:35 | -25.46510 | -54.62859 | 3613 ft | 204 kts | 197° |
| 2026-04-26 21:36 | -25.47928 | -54.62926 | 3175 ft | 209 kts | 172° |
| 2026-04-26 21:36 | -25.48812 | -54.62486 | 3030 ft | 204 kts | 148° |
| 2026-04-26 21:36 | -25.50008 | -54.61092 | 3008 ft | 166 kts | 128° |
| 2026-04-26 21:36 | -25.50671 | -54.60205 | 2971 ft | 141 kts | 132° |
| 2026-04-26 21:37 | -25.51307 | -54.59378 | 2860 ft | 141 kts | 134° |
| 2026-04-26 21:37 | -25.51943 | -54.58557 | 2706 ft | 140 kts | 134° |
| 2026-04-26 21:37 | -25.52614 | -54.57693 | 2517 ft | 141 kts | 133° |
| 2026-04-26 21:37 | -25.53256 | -54.56867 | 2343 ft | 141 kts | 133° |
| 2026-04-26 21:38 | -25.53896 | -54.56043 | 2153 ft | 140 kts | 133° |
| 2026-04-26 21:38 | -25.54540 | -54.55214 | 1970 ft | 139 kts | 133° |
| 2026-04-26 21:38 | -25.55173 | -54.54400 | 1792 ft | 140 kts | 134° |
| 2026-04-26 21:38 | -25.55809 | -54.53581 | 1610 ft | 139 kts | 133° |
| 2026-04-26 21:39 | -25.56442 | -54.52766 | 1421 ft | 138 kts | 133° |
| 2026-04-26 21:39 | -25.57069 | -54.51960 | 1243 ft | 138 kts | 133° |
| 2026-04-26 21:39 | -25.57696 | -54.51153 | 1056 ft | 136 kts | 132° |
| 2026-04-26 21:39 | -25.58321 | -54.50348 | 874 ft | 135 kts | 132° |
| 2026-04-26 21:40 | -25.58724 | -54.49829 | 806 ft | 126 kts | 130° |
| 2026-04-26 21:40 | -25.59122 | -54.49316 | 801 ft | 50 kts | 130° |
| 2026-04-26 21:40 | -25.59329 | -54.49050 | 805 ft | 26 kts | 130° |
| 2026-04-26 21:40 | -25.59444 | -54.48902 | 807 ft | 12 kts | 130° |
| 2026-04-26 21:41 | -25.59448 | -54.48898 | 807 ft | 1 kts | 149° |
| 2026-04-26 21:41 | -25.59462 | -54.48903 | 807 ft | 3 kts | 200° |
| 2026-04-26 21:41 | -25.59487 | -54.48912 | 807 ft | 5 kts | 200° |
| 2026-04-26 21:41 | -25.59521 | -54.48928 | 805 ft | 5 kts | 203° |
| 2026-04-26 21:42 | -25.59562 | -54.48924 | 804 ft | 7 kts | 150° |
| 2026-04-26 21:42 | -25.59602 | -54.48878 | 804 ft | 10 kts | 131° |
| 2026-04-26 21:42 | -25.59637 | -54.48859 | 804 ft | 1 kts | 204° |
| 2026-04-26 21:42 | -25.59650 | -54.48869 | 804 ft | 3 kts | 221° |
| 2026-04-26 21:43 | -25.59654 | -54.48872 | 804 ft | 1 kts | 222° |
| 2026-04-26 21:43 | -25.59664 | -54.48882 | 804 ft | 3 kts | 222° |
| 2026-04-26 21:43 | -25.59668 | -54.48886 | 804 ft | 0 kts | 220° |